KSVE

Susanville Municipal Airport

Susanville, California, USA
METAR KSVE 211955Z AUTO 12004KT 10SM BKN090 02/M04 A3026 RMK AO2
Observed Flight Rules
Jan-21 @ 19:55 UTC (19 minutes ago) Visual Flight Rules
Wind Visibility Clouds
120° at 4 knots 10 miles
  • Broken at 9,000' AGL
Temperatures Readings
Current 2°C / 36°F
Dewpoint -4°C / 25°F
Humidity 65%
Altimeter 30.26" Hg
Pressure 1025 hPa
Elevation 1263
METAR KSVE 211955Z AUTO 12004KT 10SM BKN090 02/M04 A3026 RMK AO2
Observed Flight Rules
Jan-21 @ 19:55 UTC
(19 minutes ago)
VFR
Wind Visibility
120° at 4 knots 10 miles
Clouds
  • Broken at 9,000' AGL
Temperature Dewpoint
2°C / 36°F -4°C / 25°F
Humidity Altimeter Pressure
65% 30.26" Hg 1025 hPa